sensor_id;sensor_type;location;lat;lon;timestamp;P1;durP1;ratioP1;P2;durP2;ratioP2
76131;SDS011;64877;50.994;13.650;2023-02-12T00:01:42;34.55;;;18.65;;
76131;SDS011;64877;50.994;13.650;2023-02-12T00:04:08;30.77;;;18.00;;
76131;SDS011;64877;50.994;13.650;2023-02-12T00:06:33;33.67;;;18.17;;
76131;SDS011;64877;50.994;13.650;2023-02-12T00:08:58;32.70;;;18.70;;
76131;SDS011;64877;50.994;13.650;2023-02-12T00:11:25;34.72;;;19.63;;
76131;SDS011;64877;50.994;13.650;2023-02-12T00:13:52;35.00;;;20.13;;
76131;SDS011;64877;50.994;13.650;2023-02-12T00:16:19;35.38;;;18.88;;
76131;SDS011;64877;50.994;13.650;2023-02-12T00:18:47;31.42;;;17.23;;
76131;SDS011;64877;50.994;13.650;2023-02-12T00:21:15;37.17;;;19.35;;
76131;SDS011;64877;50.994;13.650;2023-02-12T00:23:41;34.30;;;18.58;;
76131;SDS011;64877;50.994;13.650;2023-02-12T00:26:08;34.60;;;20.55;;
76131;SDS011;64877;50.994;13.650;2023-02-12T00:28:35;37.00;;;20.13;;
76131;SDS011;64877;50.994;13.650;2023-02-12T00:31:04;36.20;;;20.15;;
76131;SDS011;64877;50.994;13.650;2023-02-12T00:33:43;35.15;;;19.52;;
76131;SDS011;64877;50.994;13.650;2023-02-12T00:36:08;33.78;;;18.58;;
76131;SDS011;64877;50.994;13.650;2023-02-12T00:38:37;32.65;;;17.27;;
76131;SDS011;64877;50.994;13.650;2023-02-12T00:41:02;37.95;;;19.98;;
76131;SDS011;64877;50.994;13.650;2023-02-12T00:43:28;40.15;;;19.65;;
76131;SDS011;64877;50.994;13.650;2023-02-12T00:45:53;37.50;;;20.55;;
76131;SDS011;64877;50.994;13.650;2023-02-12T00:48:19;33.28;;;19.05;;
76131;SDS011;64877;50.994;13.650;2023-02-12T00:50:45;34.65;;;20.08;;
76131;SDS011;64877;50.994;13.650;2023-02-12T00:53:10;36.17;;;18.45;;
76131;SDS011;64877;50.994;13.650;2023-02-12T00:55:36;35.58;;;17.90;;
76131;SDS011;64877;50.994;13.650;2023-02-12T00:58:01;35.78;;;17.88;;
76131;SDS011;64877;50.994;13.650;2023-02-12T01:00:27;34.33;;;19.42;;
76131;SDS011;64877;50.994;13.650;2023-02-12T01:02:52;34.60;;;19.88;;
76131;SDS011;64877;50.994;13.650;2023-02-12T01:05:18;32.92;;;18.50;;
76131;SDS011;64877;50.994;13.650;2023-02-12T01:07:47;33.83;;;19.23;;
76131;SDS011;64877;50.994;13.650;2023-02-12T01:10:14;32.55;;;16.90;;
76131;SDS011;64877;50.994;13.650;2023-02-12T01:12:39;39.80;;;20.42;;
76131;SDS011;64877;50.994;13.650;2023-02-12T01:15:05;33.60;;;17.85;;
76131;SDS011;64877;50.994;13.650;2023-02-12T01:17:30;32.05;;;17.88;;
76131;SDS011;64877;50.994;13.650;2023-02-12T01:19:56;32.92;;;17.33;;
76131;SDS011;64877;50.994;13.650;2023-02-12T01:22:22;35.00;;;18.05;;
76131;SDS011;64877;50.994;13.650;2023-02-12T01:24:48;33.05;;;17.73;;
76131;SDS011;64877;50.994;13.650;2023-02-12T01:27:14;32.10;;;16.90;;
76131;SDS011;64877;50.994;13.650;2023-02-12T01:29:39;31.60;;;16.80;;
76131;SDS011;64877;50.994;13.650;2023-02-12T01:32:08;33.03;;;17.48;;
76131;SDS011;64877;50.994;13.650;2023-02-12T01:34:34;38.28;;;19.55;;
76131;SDS011;64877;50.994;13.650;2023-02-12T01:36:59;37.38;;;19.17;;
76131;SDS011;64877;50.994;13.650;2023-02-12T01:39:25;36.30;;;20.00;;
76131;SDS011;64877;50.994;13.650;2023-02-12T01:41:50;32.00;;;17.23;;
76131;SDS011;64877;50.994;13.650;2023-02-12T01:44:17;35.58;;;19.13;;
76131;SDS011;64877;50.994;13.650;2023-02-12T01:46:48;35.75;;;18.15;;
76131;SDS011;64877;50.994;13.650;2023-02-12T01:49:23;36.00;;;19.30;;
76131;SDS011;64877;50.994;13.650;2023-02-12T01:52:02;32.85;;;17.27;;
76131;SDS011;64877;50.994;13.650;2023-02-12T01:54:30;39.00;;;19.15;;
76131;SDS011;64877;50.994;13.650;2023-02-12T01:56:59;36.25;;;18.63;;
76131;SDS011;64877;50.994;13.650;2023-02-12T01:59:26;37.80;;;20.40;;
76131;SDS011;64877;50.994;13.650;2023-02-12T02:01:53;38.97;;;20.85;;
76131;SDS011;64877;50.994;13.650;2023-02-12T02:04:20;37.65;;;21.40;;
76131;SDS011;64877;50.994;13.650;2023-02-12T02:07:00;42.25;;;20.52;;
76131;SDS011;64877;50.994;13.650;2023-02-12T02:09:29;38.22;;;19.08;;
76131;SDS011;64877;50.994;13.650;2023-02-12T02:11:57;36.67;;;20.88;;
76131;SDS011;64877;50.994;13.650;2023-02-12T02:14:41;36.88;;;19.60;;
76131;SDS011;64877;50.994;13.650;2023-02-12T02:17:11;40.25;;;20.52;;
76131;SDS011;64877;50.994;13.650;2023-02-12T02:22:27;38.92;;;21.33;;
76131;SDS011;64877;50.994;13.650;2023-02-12T02:27:56;37.25;;;20.65;;
76131;SDS011;64877;50.994;13.650;2023-02-12T02:33:12;37.28;;;19.30;;
76131;SDS011;64877;50.994;13.650;2023-02-12T02:38:23;38.60;;;18.85;;
76131;SDS011;64877;50.994;13.650;2023-02-12T02:40:53;38.85;;;18.73;;
76131;SDS011;64877;50.994;13.650;2023-02-12T02:43:27;35.17;;;19.33;;
76131;SDS011;64877;50.994;13.650;2023-02-12T02:46:11;37.35;;;19.45;;
76131;SDS011;64877;50.994;13.650;2023-02-12T02:48:43;42.47;;;19.50;;
76131;SDS011;64877;50.994;13.650;2023-02-12T02:51:14;36.97;;;18.95;;
76131;SDS011;64877;50.994;13.650;2023-02-12T02:54:04;34.80;;;18.48;;
76131;SDS011;64877;50.994;13.650;2023-02-12T02:56:36;36.75;;;20.40;;
76131;SDS011;64877;50.994;13.650;2023-02-12T02:59:04;36.58;;;20.17;;
76131;SDS011;64877;50.994;13.650;2023-02-12T03:01:39;34.63;;;17.38;;
76131;SDS011;64877;50.994;13.650;2023-02-12T03:04:11;33.70;;;18.98;;
76131;SDS011;64877;50.994;13.650;2023-02-12T03:06:53;30.13;;;17.88;;
76131;SDS011;64877;50.994;13.650;2023-02-12T03:12:30;29.48;;;16.98;;
76131;SDS011;64877;50.994;13.650;2023-02-12T03:15:10;30.63;;;16.50;;
76131;SDS011;64877;50.994;13.650;2023-02-12T03:17:42;30.48;;;16.95;;
76131;SDS011;64877;50.994;13.650;2023-02-12T03:20:30;30.23;;;16.90;;
76131;SDS011;64877;50.994;13.650;2023-02-12T03:23:03;31.08;;;15.43;;
76131;SDS011;64877;50.994;13.650;2023-02-12T03:25:34;32.85;;;18.73;;
76131;SDS011;64877;50.994;13.650;2023-02-12T03:28:05;32.63;;;17.08;;
76131;SDS011;64877;50.994;13.650;2023-02-12T03:39:19;29.85;;;16.77;;
76131;SDS011;64877;50.994;13.650;2023-02-12T03:41:46;31.75;;;17.40;;
76131;SDS011;64877;50.994;13.650;2023-02-12T03:44:22;33.00;;;18.95;;
76131;SDS011;64877;50.994;13.650;2023-02-12T03:47:04;31.98;;;18.40;;
76131;SDS011;64877;50.994;13.650;2023-02-12T03:49:45;37.67;;;19.88;;
76131;SDS011;64877;50.994;13.650;2023-02-12T03:52:18;33.28;;;17.75;;
76131;SDS011;64877;50.994;13.650;2023-02-12T03:54:44;36.78;;;19.50;;
76131;SDS011;64877;50.994;13.650;2023-02-12T03:57:11;35.60;;;19.08;;
76131;SDS011;64877;50.994;13.650;2023-02-12T03:59:41;39.70;;;20.77;;
76131;SDS011;64877;50.994;13.650;2023-02-12T04:02:08;39.83;;;20.08;;
76131;SDS011;64877;50.994;13.650;2023-02-12T04:04:33;39.35;;;19.95;;
76131;SDS011;64877;50.994;13.650;2023-02-12T04:06:59;43.20;;;22.83;;
76131;SDS011;64877;50.994;13.650;2023-02-12T04:09:25;44.65;;;20.75;;
76131;SDS011;64877;50.994;13.650;2023-02-12T04:17:48;39.63;;;20.65;;
76131;SDS011;64877;50.994;13.650;2023-02-12T04:23:02;43.90;;;19.55;;
76131;SDS011;64877;50.994;13.650;2023-02-12T04:28:17;43.85;;;21.65;;
76131;SDS011;64877;50.994;13.650;2023-02-12T04:30:46;41.10;;;20.60;;
76131;SDS011;64877;50.994;13.650;2023-02-12T04:33:24;38.00;;;21.58;;
76131;SDS011;64877;50.994;13.650;2023-02-12T04:36:00;37.53;;;20.08;;
76131;SDS011;64877;50.994;13.650;2023-02-12T04:38:37;37.33;;;19.65;;
76131;SDS011;64877;50.994;13.650;2023-02-12T04:41:08;34.70;;;19.17;;
76131;SDS011;64877;50.994;13.650;2023-02-12T04:43:34;32.80;;;17.67;;
76131;SDS011;64877;50.994;13.650;2023-02-12T04:46:01;35.67;;;17.98;;
76131;SDS011;64877;50.994;13.650;2023-02-12T04:48:28;34.67;;;18.88;;
76131;SDS011;64877;50.994;13.650;2023-02-12T04:50:54;33.47;;;17.90;;
76131;SDS011;64877;50.994;13.650;2023-02-12T04:53:19;35.90;;;18.55;;
76131;SDS011;64877;50.994;13.650;2023-02-12T04:55:45;35.25;;;17.70;;
76131;SDS011;64877;50.994;13.650;2023-02-12T04:58:11;36.20;;;19.60;;
76131;SDS011;64877;50.994;13.650;2023-02-12T05:00:37;38.60;;;19.45;;
76131;SDS011;64877;50.994;13.650;2023-02-12T05:03:02;40.97;;;20.38;;
76131;SDS011;64877;50.994;13.650;2023-02-12T05:05:28;36.85;;;19.33;;
76131;SDS011;64877;50.994;13.650;2023-02-12T05:07:53;39.33;;;19.25;;
76131;SDS011;64877;50.994;13.650;2023-02-12T05:10:19;36.47;;;18.67;;
76131;SDS011;64877;50.994;13.650;2023-02-12T05:12:44;37.58;;;19.10;;
76131;SDS011;64877;50.994;13.650;2023-02-12T05:15:09;40.05;;;19.83;;
76131;SDS011;64877;50.994;13.650;2023-02-12T05:17:35;42.75;;;20.58;;
76131;SDS011;64877;50.994;13.650;2023-02-12T05:20:01;39.72;;;19.92;;
76131;SDS011;64877;50.994;13.650;2023-02-12T05:22:27;39.65;;;20.60;;
76131;SDS011;64877;50.994;13.650;2023-02-12T05:24:52;36.53;;;19.15;;
76131;SDS011;64877;50.994;13.650;2023-02-12T05:27:17;33.88;;;17.83;;
76131;SDS011;64877;50.994;13.650;2023-02-12T05:29:43;38.97;;;19.73;;
76131;SDS011;64877;50.994;13.650;2023-02-12T05:32:08;41.08;;;21.13;;
76131;SDS011;64877;50.994;13.650;2023-02-12T05:34:34;36.97;;;18.00;;
76131;SDS011;64877;50.994;13.650;2023-02-12T05:36:59;38.25;;;18.85;;
76131;SDS011;64877;50.994;13.650;2023-02-12T05:39:25;33.20;;;16.70;;
76131;SDS011;64877;50.994;13.650;2023-02-12T05:41:50;33.42;;;18.02;;
76131;SDS011;64877;50.994;13.650;2023-02-12T05:44:15;30.77;;;15.73;;
76131;SDS011;64877;50.994;13.650;2023-02-12T05:46:41;27.27;;;15.00;;
76131;SDS011;64877;50.994;13.650;2023-02-12T05:49:07;34.85;;;16.80;;
76131;SDS011;64877;50.994;13.650;2023-02-12T05:51:34;38.63;;;18.20;;
76131;SDS011;64877;50.994;13.650;2023-02-12T05:54:01;32.78;;;17.10;;
76131;SDS011;64877;50.994;13.650;2023-02-12T05:56:29;34.45;;;16.92;;
76131;SDS011;64877;50.994;13.650;2023-02-12T05:58:58;32.65;;;16.08;;
76131;SDS011;64877;50.994;13.650;2023-02-12T06:01:44;32.03;;;16.00;;
76131;SDS011;64877;50.994;13.650;2023-02-12T06:04:14;31.73;;;16.73;;
76131;SDS011;64877;50.994;13.650;2023-02-12T06:06:42;35.38;;;17.05;;
76131;SDS011;64877;50.994;13.650;2023-02-12T06:09:08;30.92;;;16.52;;
76131;SDS011;64877;50.994;13.650;2023-02-12T06:11:34;34.75;;;18.77;;
76131;SDS011;64877;50.994;13.650;2023-02-12T06:14:01;29.70;;;16.30;;
76131;SDS011;64877;50.994;13.650;2023-02-12T06:16:27;34.13;;;17.23;;
76131;SDS011;64877;50.994;13.650;2023-02-12T06:18:53;31.88;;;17.13;;
76131;SDS011;64877;50.994;13.650;2023-02-12T06:21:20;34.90;;;17.45;;
76131;SDS011;64877;50.994;13.650;2023-02-12T06:23:47;31.27;;;16.92;;
76131;SDS011;64877;50.994;13.650;2023-02-12T06:26:14;33.70;;;17.10;;
76131;SDS011;64877;50.994;13.650;2023-02-12T06:28:40;34.20;;;17.10;;
76131;SDS011;64877;50.994;13.650;2023-02-12T06:31:16;33.25;;;16.67;;
76131;SDS011;64877;50.994;13.650;2023-02-12T06:33:46;31.98;;;15.77;;
76131;SDS011;64877;50.994;13.650;2023-02-12T06:36:13;32.50;;;16.98;;
76131;SDS011;64877;50.994;13.650;2023-02-12T06:38:38;31.25;;;16.73;;
76131;SDS011;64877;50.994;13.650;2023-02-12T06:41:04;31.67;;;16.35;;
76131;SDS011;64877;50.994;13.650;2023-02-12T06:43:29;30.00;;;16.13;;
76131;SDS011;64877;50.994;13.650;2023-02-12T06:45:54;29.42;;;14.98;;
76131;SDS011;64877;50.994;13.650;2023-02-12T06:48:20;32.78;;;15.98;;
76131;SDS011;64877;50.994;13.650;2023-02-12T06:50:45;31.88;;;15.93;;
76131;SDS011;64877;50.994;13.650;2023-02-12T06:53:11;33.58;;;16.23;;
76131;SDS011;64877;50.994;13.650;2023-02-12T06:55:36;27.70;;;15.77;;
76131;SDS011;64877;50.994;13.650;2023-02-12T06:58:01;32.10;;;15.02;;
76131;SDS011;64877;50.994;13.650;2023-02-12T07:00:27;32.83;;;16.48;;
76131;SDS011;64877;50.994;13.650;2023-02-12T07:02:53;31.48;;;15.68;;
76131;SDS011;64877;50.994;13.650;2023-02-12T07:05:19;28.35;;;15.38;;
76131;SDS011;64877;50.994;13.650;2023-02-12T07:07:45;32.58;;;15.57;;
76131;SDS011;64877;50.994;13.650;2023-02-12T07:10:10;28.85;;;15.23;;
76131;SDS011;64877;50.994;13.650;2023-02-12T07:12:35;30.52;;;15.90;;
76131;SDS011;64877;50.994;13.650;2023-02-12T07:15:01;30.10;;;15.50;;
76131;SDS011;64877;50.994;13.650;2023-02-12T07:17:28;33.13;;;16.52;;
76131;SDS011;64877;50.994;13.650;2023-02-12T07:22:19;27.23;;;16.13;;
76131;SDS011;64877;50.994;13.650;2023-02-12T07:24:46;32.00;;;16.52;;
76131;SDS011;64877;50.994;13.650;2023-02-12T07:27:11;35.05;;;16.63;;
76131;SDS011;64877;50.994;13.650;2023-02-12T07:29:37;30.75;;;16.83;;
76131;SDS011;64877;50.994;13.650;2023-02-12T07:32:02;29.15;;;15.77;;
76131;SDS011;64877;50.994;13.650;2023-02-12T07:34:28;31.92;;;15.98;;
76131;SDS011;64877;50.994;13.650;2023-02-12T07:36:53;30.10;;;16.15;;
76131;SDS011;64877;50.994;13.650;2023-02-12T07:39:19;27.00;;;14.13;;
76131;SDS011;64877;50.994;13.650;2023-02-12T07:41:44;28.23;;;14.70;;
76131;SDS011;64877;50.994;13.650;2023-02-12T07:44:10;29.77;;;16.15;;
76131;SDS011;64877;50.994;13.650;2023-02-12T07:46:38;31.00;;;15.93;;
76131;SDS011;64877;50.994;13.650;2023-02-12T07:49:06;34.55;;;17.05;;
76131;SDS011;64877;50.994;13.650;2023-02-12T07:51:35;30.90;;;15.20;;
76131;SDS011;64877;50.994;13.650;2023-02-12T07:54:01;31.05;;;16.20;;
76131;SDS011;64877;50.994;13.650;2023-02-12T07:56:29;29.10;;;16.42;;
76131;SDS011;64877;50.994;13.650;2023-02-12T07:58:56;28.00;;;15.20;;
76131;SDS011;64877;50.994;13.650;2023-02-12T08:01:28;28.23;;;14.57;;
76131;SDS011;64877;50.994;13.650;2023-02-12T08:04:02;27.77;;;14.82;;
76131;SDS011;64877;50.994;13.650;2023-02-12T08:06:31;33.40;;;16.52;;
76131;SDS011;64877;50.994;13.650;2023-02-12T08:08:58;31.23;;;17.80;;
76131;SDS011;64877;50.994;13.650;2023-02-12T08:11:25;33.97;;;18.15;;
76131;SDS011;64877;50.994;13.650;2023-02-12T08:13:52;36.65;;;18.08;;
76131;SDS011;64877;50.994;13.650;2023-02-12T08:16:19;31.13;;;18.73;;
76131;SDS011;64877;50.994;13.650;2023-02-12T08:18:46;33.72;;;17.88;;
76131;SDS011;64877;50.994;13.650;2023-02-12T08:21:13;31.27;;;16.92;;
76131;SDS011;64877;50.994;13.650;2023-02-12T08:23:41;28.77;;;17.98;;
76131;SDS011;64877;50.994;13.650;2023-02-12T08:26:13;32.33;;;17.52;;
76131;SDS011;64877;50.994;13.650;2023-02-12T08:28:51;29.42;;;17.23;;
76131;SDS011;64877;50.994;13.650;2023-02-12T08:31:20;28.55;;;16.92;;
76131;SDS011;64877;50.994;13.650;2023-02-12T08:33:50;28.50;;;15.80;;
76131;SDS011;64877;50.994;13.650;2023-02-12T08:36:19;28.75;;;16.77;;
76131;SDS011;64877;50.994;13.650;2023-02-12T08:38:46;30.67;;;16.00;;
76131;SDS011;64877;50.994;13.650;2023-02-12T08:41:19;27.48;;;15.88;;
76131;SDS011;64877;50.994;13.650;2023-02-12T08:43:49;27.65;;;15.23;;
76131;SDS011;64877;50.994;13.650;2023-02-12T08:46:21;26.63;;;15.73;;
76131;SDS011;64877;50.994;13.650;2023-02-12T08:48:50;22.58;;;14.02;;
76131;SDS011;64877;50.994;13.650;2023-02-12T08:51:19;35.38;;;17.02;;
76131;SDS011;64877;50.994;13.650;2023-02-12T08:53:46;32.13;;;16.30;;
76131;SDS011;64877;50.994;13.650;2023-02-12T08:56:16;26.40;;;15.40;;
76131;SDS011;64877;50.994;13.650;2023-02-12T08:58:42;27.95;;;14.65;;
76131;SDS011;64877;50.994;13.650;2023-02-12T09:01:09;28.33;;;15.13;;
76131;SDS011;64877;50.994;13.650;2023-02-12T09:03:36;28.40;;;16.30;;
76131;SDS011;64877;50.994;13.650;2023-02-12T09:06:02;17.27;;;9.57;;
76131;SDS011;64877;50.994;13.650;2023-02-12T09:08:29;15.35;;;9.40;;
76131;SDS011;64877;50.994;13.650;2023-02-12T09:10:54;17.70;;;9.70;;
76131;SDS011;64877;50.994;13.650;2023-02-12T09:13:20;16.35;;;8.52;;
76131;SDS011;64877;50.994;13.650;2023-02-12T09:15:45;13.13;;;8.10;;
76131;SDS011;64877;50.994;13.650;2023-02-12T09:18:11;14.63;;;8.63;;
76131;SDS011;64877;50.994;13.650;2023-02-12T09:20:39;13.07;;;7.38;;
76131;SDS011;64877;50.994;13.650;2023-02-12T09:23:07;14.52;;;8.35;;
76131;SDS011;64877;50.994;13.650;2023-02-12T09:25:33;15.32;;;8.02;;
76131;SDS011;64877;50.994;13.650;2023-02-12T09:28:03;14.05;;;8.40;;
76131;SDS011;64877;50.994;13.650;2023-02-12T09:30:28;13.82;;;7.80;;
76131;SDS011;64877;50.994;13.650;2023-02-12T09:32:54;14.50;;;8.18;;
76131;SDS011;64877;50.994;13.650;2023-02-12T09:35:20;12.35;;;7.50;;
76131;SDS011;64877;50.994;13.650;2023-02-12T09:37:46;18.02;;;9.82;;
76131;SDS011;64877;50.994;13.650;2023-02-12T09:40:18;15.80;;;9.45;;
76131;SDS011;64877;50.994;13.650;2023-02-12T09:42:58;16.95;;;8.40;;
76131;SDS011;64877;50.994;13.650;2023-02-12T09:45:36;19.70;;;9.18;;
76131;SDS011;64877;50.994;13.650;2023-02-12T09:50:36;17.93;;;9.00;;
76131;SDS011;64877;50.994;13.650;2023-02-12T09:53:04;15.75;;;7.72;;
76131;SDS011;64877;50.994;13.650;2023-02-12T09:55:31;13.95;;;7.00;;
76131;SDS011;64877;50.994;13.650;2023-02-12T09:58:02;12.82;;;7.63;;
76131;SDS011;64877;50.994;13.650;2023-02-12T10:00:36;11.82;;;6.80;;
76131;SDS011;64877;50.994;13.650;2023-02-12T10:03:03;13.15;;;7.13;;
76131;SDS011;64877;50.994;13.650;2023-02-12T10:06:18;14.15;;;7.13;;
76131;SDS011;64877;50.994;13.650;2023-02-12T10:17:39;13.50;;;7.57;;
76131;SDS011;64877;50.994;13.650;2023-02-12T10:28:37;15.45;;;5.90;;
76131;SDS011;64877;50.994;13.650;2023-02-12T10:31:06;16.05;;;6.60;;
76131;SDS011;64877;50.994;13.650;2023-02-12T10:33:50;12.25;;;5.90;;
76131;SDS011;64877;50.994;13.650;2023-02-12T10:36:36;13.85;;;6.45;;
76131;SDS011;64877;50.994;13.650;2023-02-12T10:41:36;13.15;;;6.18;;
76131;SDS011;64877;50.994;13.650;2023-02-12T10:44:05;10.38;;;6.20;;
76131;SDS011;64877;50.994;13.650;2023-02-12T10:46:31;14.25;;;5.80;;
76131;SDS011;64877;50.994;13.650;2023-02-12T10:48:56;16.95;;;6.63;;
76131;SDS011;64877;50.994;13.650;2023-02-12T10:51:29;14.55;;;6.50;;
76131;SDS011;64877;50.994;13.650;2023-02-12T10:57:13;16.25;;;7.97;;
76131;SDS011;64877;50.994;13.650;2023-02-12T10:59:42;13.45;;;6.70;;
76131;SDS011;64877;50.994;13.650;2023-02-12T11:02:28;14.25;;;6.07;;
76131;SDS011;64877;50.994;13.650;2023-02-12T11:04:55;15.30;;;6.07;;
76131;SDS011;64877;50.994;13.650;2023-02-12T11:07:23;15.07;;;6.25;;
76131;SDS011;64877;50.994;13.650;2023-02-12T11:09:50;13.63;;;5.28;;
76131;SDS011;64877;50.994;13.650;2023-02-12T11:12:33;17.40;;;6.00;;
76131;SDS011;64877;50.994;13.650;2023-02-12T11:15:21;15.95;;;6.28;;
76131;SDS011;64877;50.994;13.650;2023-02-12T11:17:55;13.00;;;5.45;;
76131;SDS011;64877;50.994;13.650;2023-02-12T11:22:59;13.98;;;5.43;;
76131;SDS011;64877;50.994;13.650;2023-02-12T11:25:28;19.50;;;6.15;;
76131;SDS011;64877;50.994;13.650;2023-02-12T11:35:55;16.10;;;5.65;;
76131;SDS011;64877;50.994;13.650;2023-02-12T11:38:28;15.27;;;4.75;;
76131;SDS011;64877;50.994;13.650;2023-02-12T11:40:57;17.95;;;4.95;;
76131;SDS011;64877;50.994;13.650;2023-02-12T11:43:26;15.43;;;5.43;;
76131;SDS011;64877;50.994;13.650;2023-02-12T11:45:55;11.18;;;4.20;;
76131;SDS011;64877;50.994;13.650;2023-02-12T11:48:26;14.52;;;4.63;;
76131;SDS011;64877;50.994;13.650;2023-02-12T11:50:59;12.43;;;4.72;;
76131;SDS011;64877;50.994;13.650;2023-02-12T11:53:29;15.73;;;4.68;;
76131;SDS011;64877;50.994;13.650;2023-02-12T11:56:01;12.40;;;4.68;;
76131;SDS011;64877;50.994;13.650;2023-02-12T11:58:29;11.40;;;3.90;;
76131;SDS011;64877;50.994;13.650;2023-02-12T12:01:03;15.07;;;4.18;;
76131;SDS011;64877;50.994;13.650;2023-02-12T12:06:01;10.25;;;3.88;;
76131;SDS011;64877;50.994;13.650;2023-02-12T12:14:30;15.85;;;4.78;;
76131;SDS011;64877;50.994;13.650;2023-02-12T12:17:20;10.25;;;3.70;;
76131;SDS011;64877;50.994;13.650;2023-02-12T12:20:14;17.80;;;4.68;;
76131;SDS011;64877;50.994;13.650;2023-02-12T12:36:39;12.63;;;4.18;;
76131;SDS011;64877;50.994;13.650;2023-02-12T12:50:55;13.98;;;3.63;;
76131;SDS011;64877;50.994;13.650;2023-02-12T13:09:32;13.35;;;4.50;;
76131;SDS011;64877;50.994;13.650;2023-02-12T13:12:26;15.55;;;4.50;;
76131;SDS011;64877;50.994;13.650;2023-02-12T13:17:42;16.70;;;4.53;;
76131;SDS011;64877;50.994;13.650;2023-02-12T13:23:15;13.00;;;4.60;;
76131;SDS011;64877;50.994;13.650;2023-02-12T13:28:45;11.68;;;4.13;;
76131;SDS011;64877;50.994;13.650;2023-02-12T13:31:19;13.10;;;3.75;;
76131;SDS011;64877;50.994;13.650;2023-02-12T13:33:49;10.57;;;3.92;;
76131;SDS011;64877;50.994;13.650;2023-02-12T13:36:17;12.55;;;4.13;;
76131;SDS011;64877;50.994;13.650;2023-02-12T13:41:23;13.48;;;4.70;;
76131;SDS011;64877;50.994;13.650;2023-02-12T13:46:44;15.20;;;7.15;;
76131;SDS011;64877;50.994;13.650;2023-02-12T13:49:33;15.88;;;6.75;;
76131;SDS011;64877;50.994;13.650;2023-02-12T13:52:24;15.40;;;6.10;;
76131;SDS011;64877;50.994;13.650;2023-02-12T13:55:31;15.90;;;6.10;;
76131;SDS011;64877;50.994;13.650;2023-02-12T14:03:33;13.07;;;5.10;;
76131;SDS011;64877;50.994;13.650;2023-02-12T14:08:36;13.68;;;5.13;;
76131;SDS011;64877;50.994;13.650;2023-02-12T14:11:23;14.80;;;6.32;;
76131;SDS011;64877;50.994;13.650;2023-02-12T14:13:57;17.58;;;5.47;;
76131;SDS011;64877;50.994;13.650;2023-02-12T14:21:56;12.95;;;6.40;;
76131;SDS011;64877;50.994;13.650;2023-02-12T14:27:01;9.82;;;4.32;;
76131;SDS011;64877;50.994;13.650;2023-02-12T14:29:39;10.10;;;4.70;;
76131;SDS011;64877;50.994;13.650;2023-02-12T14:35:34;12.50;;;4.57;;
76131;SDS011;64877;50.994;13.650;2023-02-12T14:38:02;11.13;;;5.70;;
76131;SDS011;64877;50.994;13.650;2023-02-12T14:40:48;12.98;;;6.90;;
76131;SDS011;64877;50.994;13.650;2023-02-12T14:43:36;9.43;;;5.72;;
76131;SDS011;64877;50.994;13.650;2023-02-12T14:54:34;8.30;;;5.13;;
76131;SDS011;64877;50.994;13.650;2023-02-12T14:57:06;8.43;;;4.90;;
76131;SDS011;64877;50.994;13.650;2023-02-12T14:59:37;9.98;;;5.47;;
76131;SDS011;64877;50.994;13.650;2023-02-12T15:02:05;8.48;;;5.22;;
76131;SDS011;64877;50.994;13.650;2023-02-12T15:04:38;13.20;;;7.15;;
76131;SDS011;64877;50.994;13.650;2023-02-12T15:07:09;13.15;;;6.22;;
76131;SDS011;64877;50.994;13.650;2023-02-12T15:09:43;13.27;;;5.82;;
76131;SDS011;64877;50.994;13.650;2023-02-12T15:12:31;12.32;;;5.32;;
76131;SDS011;64877;50.994;13.650;2023-02-12T15:15:03;11.35;;;5.45;;
76131;SDS011;64877;50.994;13.650;2023-02-12T15:17:38;9.55;;;5.05;;
76131;SDS011;64877;50.994;13.650;2023-02-12T15:20:15;9.18;;;5.53;;
76131;SDS011;64877;50.994;13.650;2023-02-12T15:22:46;11.07;;;6.18;;
76131;SDS011;64877;50.994;13.650;2023-02-12T15:27:43;9.82;;;5.25;;
76131;SDS011;64877;50.994;13.650;2023-02-12T15:30:15;10.13;;;6.00;;
76131;SDS011;64877;50.994;13.650;2023-02-12T15:32:43;9.27;;;5.07;;
76131;SDS011;64877;50.994;13.650;2023-02-12T15:37:50;11.30;;;6.32;;
76131;SDS011;64877;50.994;13.650;2023-02-12T15:40:16;7.20;;;4.82;;
76131;SDS011;64877;50.994;13.650;2023-02-12T15:42:50;7.30;;;4.45;;
76131;SDS011;64877;50.994;13.650;2023-02-12T15:45:22;9.20;;;5.60;;
76131;SDS011;64877;50.994;13.650;2023-02-12T15:53:22;8.50;;;5.80;;
76131;SDS011;64877;50.994;13.650;2023-02-12T15:55:50;10.15;;;6.22;;
76131;SDS011;64877;50.994;13.650;2023-02-12T15:58:20;10.43;;;5.95;;
76131;SDS011;64877;50.994;13.650;2023-02-12T16:00:51;11.07;;;6.22;;
76131;SDS011;64877;50.994;13.650;2023-02-12T16:03:25;12.55;;;7.30;;
76131;SDS011;64877;50.994;13.650;2023-02-12T16:06:06;12.40;;;7.13;;
76131;SDS011;64877;50.994;13.650;2023-02-12T16:08:38;8.50;;;5.40;;
76131;SDS011;64877;50.994;13.650;2023-02-12T16:11:06;10.43;;;6.35;;
76131;SDS011;64877;50.994;13.650;2023-02-12T16:13:43;10.02;;;6.13;;
76131;SDS011;64877;50.994;13.650;2023-02-12T16:18:37;10.60;;;5.97;;
76131;SDS011;64877;50.994;13.650;2023-02-12T16:21:17;11.85;;;7.85;;
76131;SDS011;64877;50.994;13.650;2023-02-12T16:23:46;11.13;;;7.50;;
76131;SDS011;64877;50.994;13.650;2023-02-12T16:26:17;12.43;;;8.60;;
76131;SDS011;64877;50.994;13.650;2023-02-12T16:28:49;11.60;;;7.75;;
76131;SDS011;64877;50.994;13.650;2023-02-12T16:31:18;12.27;;;8.50;;
76131;SDS011;64877;50.994;13.650;2023-02-12T16:41:29;21.33;;;11.40;;
76131;SDS011;64877;50.994;13.650;2023-02-12T16:46:24;22.38;;;13.05;;
76131;SDS011;64877;50.994;13.650;2023-02-12T16:48:51;18.60;;;11.80;;
76131;SDS011;64877;50.994;13.650;2023-02-12T16:51:26;21.23;;;12.32;;
76131;SDS011;64877;50.994;13.650;2023-02-12T16:53:52;22.63;;;12.77;;
76131;SDS011;64877;50.994;13.650;2023-02-12T16:56:21;25.08;;;14.45;;
76131;SDS011;64877;50.994;13.650;2023-02-12T16:58:49;25.67;;;15.60;;
76131;SDS011;64877;50.994;13.650;2023-02-12T17:01:22;24.10;;;14.57;;
76131;SDS011;64877;50.994;13.650;2023-02-12T17:03:52;23.33;;;12.90;;
76131;SDS011;64877;50.994;13.650;2023-02-12T17:06:19;30.98;;;14.55;;
76131;SDS011;64877;50.994;13.650;2023-02-12T17:08:46;25.52;;;15.23;;
76131;SDS011;64877;50.994;13.650;2023-02-12T17:11:11;24.60;;;13.77;;
76131;SDS011;64877;50.994;13.650;2023-02-12T17:13:39;22.73;;;14.20;;
76131;SDS011;64877;50.994;13.650;2023-02-12T17:16:04;23.00;;;14.45;;
76131;SDS011;64877;50.994;13.650;2023-02-12T17:18:30;20.25;;;12.57;;
76131;SDS011;64877;50.994;13.650;2023-02-12T17:20:58;23.38;;;14.88;;
76131;SDS011;64877;50.994;13.650;2023-02-12T17:23:26;23.80;;;15.43;;
76131;SDS011;64877;50.994;13.650;2023-02-12T17:25:52;34.30;;;19.30;;
76131;SDS011;64877;50.994;13.650;2023-02-12T17:28:17;26.13;;;18.35;;
76131;SDS011;64877;50.994;13.650;2023-02-12T17:30:43;31.00;;;21.23;;
76131;SDS011;64877;50.994;13.650;2023-02-12T17:33:08;33.22;;;22.42;;
76131;SDS011;64877;50.994;13.650;2023-02-12T17:35:35;31.17;;;20.48;;
76131;SDS011;64877;50.994;13.650;2023-02-12T17:38:02;25.10;;;16.15;;